Time;durP1;ratioP1;P1;durP2;ratioP2;P2;SDS_P1;SDS_P2;PMS_P1;PMS_P2;Temp;Humidity;BMP_temperature;BMP_pressure;BME280_temperature;BME280_humidity;BME280_pressure;Samples;Min_cycle;Max_cycle;Signal;HPM_P1;HPM_P2
2022/09/13 00:00:20;;;;;;;7.86;7.00;;;14.60;99.90;;;;;;4767123;27;10001080;-73
2022/09/13 00:02:46;;;;;;;8.40;7.03;;;14.60;99.90;;;;;;4767316;27;10000617;-72
2022/09/13 00:05:12;;;;;;;8.40;7.05;;;14.60;99.90;;;;;;5124992;27;20052;-73
2022/09/13 00:07:37;;;;;;;9.57;7.60;;;14.60;99.90;;;;;;5126415;27;20500;-73
2022/09/13 00:10:03;;;;;;;8.65;7.75;;;14.60;99.90;;;;;;5132131;27;20041;-72
2022/09/13 00:12:29;;;;;;;8.25;6.85;;;14.60;99.90;;;;;;5126153;27;20026;-73
2022/09/13 00:14:55;;;;;;;7.45;6.57;;;14.60;99.90;;;;;;5122651;27;20031;-73
2022/09/13 00:17:21;;;;;;;9.18;7.65;;;14.60;99.90;;;;;;5127729;27;20023;-73
2022/09/13 00:19:47;;;;;;;8.93;6.60;;;14.60;99.90;;;;;;5132466;27;20027;-73
2022/09/13 00:22:12;;;;;;;10.52;7.57;;;14.60;99.90;;;;;;5127918;27;20088;-73
2022/09/13 00:24:38;;;;;;;10.98;7.63;;;14.60;99.90;;;;;;5126283;27;20080;-73
2022/09/13 00:27:04;;;;;;;8.70;7.15;;;14.60;99.90;;;;;;5139232;27;20035;-72
2022/09/13 00:29:29;;;;;;;10.93;7.20;;;14.60;99.90;;;;;;5128661;27;20023;-73
2022/09/13 00:31:55;;;;;;;14.20;7.43;;;14.60;99.90;;;;;;5124994;27;20052;-73
2022/09/13 00:34:20;;;;;;;9.40;8.05;;;14.60;99.90;;;;;;5124910;27;20027;-72
2022/09/13 00:36:46;;;;;;;10.18;8.13;;;14.50;99.90;;;;;;5137487;27;20019;-72
2022/09/13 00:39:12;;;;;;;10.70;7.78;;;14.60;99.90;;;;;;5140020;27;20027;-73
2022/09/13 00:41:37;;;;;;;9.25;7.75;;;14.50;99.90;;;;;;5113944;27;20204;-73
2022/09/13 00:44:05;;;;;;;9.18;7.70;;;14.50;99.90;;;;;;5116357;27;20026;-74
2022/09/13 00:46:47;;;;;;;8.75;7.25;;;14.40;99.90;;;;;;5109558;27;20027;-73
2022/09/13 00:49:25;;;;;;;9.50;7.38;;;14.40;99.90;;;;;;5109279;27;20035;-73
2022/09/13 00:51:57;;;;;;;9.38;7.53;;;14.40;99.90;;;;;;5109241;27;20559;-72
2022/09/13 00:54:28;;;;;;;10.00;7.93;;;14.30;99.90;;;;;;5107491;27;20103;-73
2022/09/13 00:56:59;;;;;;;10.13;7.68;;;14.30;99.90;;;;;;5112583;27;20083;-73
2022/09/13 00:59:29;;;;;;;8.95;7.38;;;14.20;99.90;;;;;;5111035;27;20028;-73
2022/09/13 01:01:56;;;;;;;11.02;7.15;;;14.20;99.90;;;;;;5115282;27;20034;-73
2022/09/13 01:04:26;;;;;;;8.13;6.78;;;14.20;99.90;;;;;;5114889;27;20034;-73
2022/09/13 01:06:55;;;;;;;9.13;6.88;;;14.20;99.90;;;;;;5109290;27;20038;-73
2022/09/13 01:09:21;;;;;;;7.32;6.55;;;14.20;99.90;;;;;;5111356;27;20023;-73
2022/09/13 01:12:03;;;;;;;7.90;6.47;;;14.20;99.90;;;;;;5109460;27;20028;-73
2022/09/13 01:14:30;;;;;;;9.88;7.82;;;14.20;99.90;;;;;;5115614;27;20054;-73
2022/09/13 01:16:56;;;;;;;9.18;7.88;;;14.20;99.90;;;;;;5111546;27;20110;-73
2022/09/13 01:19:22;;;;;;;8.38;7.10;;;14.20;99.90;;;;;;5117581;27;20030;-73
2022/09/13 01:22:00;;;;;;;8.73;6.80;;;14.20;99.90;;;;;;5108016;27;20023;-73
2022/09/13 01:24:44;;;;;;;8.35;7.45;;;14.20;99.90;;;;;;5104341;27;20099;-72
2022/09/13 01:27:18;;;;;;;8.90;7.22;;;14.20;99.90;;;;;;5117037;27;20029;-72
2022/09/13 01:30:15;;;;;;;9.18;7.60;;;14.20;99.90;;;;;;5112028;27;20099;-73
2022/09/13 01:33:00;;;;;;;8.38;6.90;;;14.10;99.90;;;;;;5108858;27;20023;-72
2022/09/13 01:36:02;;;;;;;8.40;7.05;;;14.10;99.90;;;;;;5098135;27;20035;-73
2022/09/13 01:38:52;;;;;;;9.98;7.60;;;14.10;99.90;;;;;;5108796;27;20062;-73
2022/09/13 01:41:29;;;;;;;11.30;8.00;;;14.10;99.90;;;;;;5128053;27;20051;-73
2022/09/13 01:44:04;;;;;;;12.15;9.00;;;14.00;99.90;;;;;;5120240;27;20074;-73
2022/09/13 01:46:54;;;;;;;10.02;8.20;;;14.00;99.90;;;;;;5123325;27;20035;-73
2022/09/13 01:49:44;;;;;;;10.25;8.60;;;14.00;99.90;;;;;;5121526;27;20378;-73
2022/09/13 01:52:24;;;;;;;10.48;8.57;;;13.90;99.90;;;;;;5124544;27;20031;-73
2022/09/13 01:55:01;;;;;;;10.55;7.95;;;13.90;99.90;;;;;;5122103;27;20092;-73
2022/09/13 01:57:42;;;;;;;10.30;8.10;;;13.80;99.90;;;;;;5135320;27;20421;-73
2022/09/13 02:00:14;;;;;;;12.07;8.13;;;13.80;99.90;;;;;;5125553;27;20112;-73
2022/09/13 02:02:55;;;;;;;9.52;8.07;;;13.80;99.90;;;;;;5138495;27;20428;-73
2022/09/13 02:05:51;;;;;;;13.80;8.63;;;13.80;99.90;;;;;;5120991;27;20535;-72
2022/09/13 02:08:27;;;;;;;9.43;7.88;;;13.70;99.90;;;;;;5143029;27;20038;-72
2022/09/13 02:11:05;;;;;;;11.98;8.73;;;13.70;99.90;;;;;;5114287;27;20389;-72
2022/09/13 02:13:35;;;;;;;8.75;7.75;;;13.70;99.90;;;;;;5135499;27;20046;-73
2022/09/13 02:16:11;;;;;;;9.30;7.70;;;13.70;99.90;;;;;;5126699;27;20054;-72
2022/09/13 02:18:45;;;;;;;10.25;8.40;;;13.80;99.90;;;;;;5136732;27;20038;-72
2022/09/13 02:21:17;;;;;;;14.35;8.32;;;13.80;99.90;;;;;;5134686;27;20039;-73
2022/09/13 02:24:07;;;;;;;9.57;7.75;;;13.80;99.90;;;;;;5139745;27;20118;-72
2022/09/13 02:26:36;;;;;;;12.20;8.30;;;13.90;99.90;;;;;;5125986;27;20043;-73
2022/09/13 02:29:06;;;;;;;9.18;8.15;;;14.00;99.90;;;;;;5124967;27;20034;-73
2022/09/13 02:31:48;;;;;;;11.35;8.68;;;14.00;99.90;;;;;;5135202;27;20047;-72
2022/09/13 02:34:21;;;;;;;10.48;8.15;;;14.00;99.90;;;;;;5123675;27;20424;-72
2022/09/13 02:36:49;;;;;;;8.48;7.57;;;14.00;99.90;;;;;;5126969;27;20027;-73
2022/09/13 02:39:18;;;;;;;8.48;6.47;;;14.00;99.90;;;;;;5140438;27;20118;-72
2022/09/13 02:42:18;;;;;;;7.97;6.43;;;14.00;99.90;;;;;;5136040;27;20030;-73
2022/09/13 02:44:52;;;;;;;9.40;6.85;;;14.00;99.90;;;;;;5129874;27;20092;-73
2022/09/13 02:47:21;;;;;;;7.72;6.57;;;14.00;99.90;;;;;;5113824;27;20024;-72
2022/09/13 02:49:57;;;;;;;10.02;8.18;;;13.90;99.90;;;;;;5113299;27;20049;-73
2022/09/13 02:52:44;;;;;;;9.25;7.85;;;13.90;99.90;;;;;;5119465;27;20545;-72
2022/09/13 02:55:20;;;;;;;10.00;7.97;;;13.90;99.90;;;;;;5122570;27;20061;-73
2022/09/13 02:57:48;;;;;;;8.93;7.28;;;13.90;99.90;;;;;;5135028;27;20419;-73
2022/09/13 03:00:14;;;;;;;9.00;7.88;;;13.90;99.90;;;;;;5136981;27;20026;-73
2022/09/13 03:02:42;;;;;;;12.75;8.73;;;13.90;99.90;;;;;;5121258;27;20023;-73
2022/09/13 03:05:09;;;;;;;11.02;9.32;;;13.90;99.90;;;;;;5130775;27;20378;-73
2022/09/13 03:07:34;;;;;;;12.48;9.27;;;13.90;99.90;;;;;;5131124;27;20128;-73
2022/09/13 03:10:06;;;;;;;12.73;9.20;;;13.90;99.90;;;;;;5123005;27;20534;-72
2022/09/13 03:12:48;;;;;;;12.73;9.13;;;13.90;99.90;;;;;;5124431;27;20027;-73
2022/09/13 03:15:28;;;;;;;12.40;9.38;;;13.80;99.90;;;;;;5132623;27;20027;-73
2022/09/13 03:18:00;;;;;;;14.48;9.85;;;13.80;99.90;;;;;;5123346;27;20034;-72
2022/09/13 03:20:46;;;;;;;10.88;8.95;;;13.80;99.90;;;;;;5126641;27;20161;-72
2022/09/13 03:23:30;;;;;;;12.18;8.93;;;13.80;99.90;;;;;;5129748;27;20065;-72
2022/09/13 03:26:07;;;;;;;11.65;9.35;;;13.90;99.90;;;;;;5127268;27;20036;-72
2022/09/13 03:28:54;;;;;;;10.90;9.30;;;13.90;99.90;;;;;;5130466;27;20605;-72
2022/09/13 03:31:32;;;;;;;12.05;9.25;;;13.90;99.90;;;;;;5122655;27;20024;-72
2022/09/13 03:34:25;;;;;;;12.38;9.15;;;14.00;99.90;;;;;;5139026;27;20033;-72
2022/09/13 03:37:19;;;;;;;12.18;9.43;;;14.00;99.90;;;;;;5133562;27;20030;-72
2022/09/13 03:39:52;;;;;;;11.57;9.45;;;14.00;99.90;;;;;;5118980;27;20062;-72
2022/09/13 03:42:28;;;;;;;14.60;9.93;;;14.00;99.90;;;;;;5124191;27;20031;-72
2022/09/13 03:44:56;;;;;;;12.23;9.68;;;14.00;99.90;;;;;;5125450;27;20571;-72
2022/09/13 03:47:24;;;;;;;10.65;8.95;;;14.00;99.90;;;;;;5136388;27;20030;-72
2022/09/13 03:49:51;;;;;;;11.75;9.80;;;14.00;99.90;;;;;;5123998;27;20394;-73
2022/09/13 03:52:17;;;;;;;15.75;9.90;;;14.10;99.90;;;;;;5123003;27;20033;-72
2022/09/13 03:54:43;;;;;;;11.88;9.48;;;14.00;99.90;;;;;;5128983;27;20027;-73
2022/09/13 03:57:09;;;;;;;12.77;9.52;;;14.00;99.90;;;;;;5125767;27;20038;-72
2022/09/13 03:59:37;;;;;;;14.05;9.60;;;14.00;99.90;;;;;;5121332;27;20029;-72
2022/09/13 04:02:04;;;;;;;13.32;9.93;;;14.00;99.90;;;;;;5122732;27;20033;-73
2022/09/13 04:04:31;;;;;;;15.05;9.57;;;14.00;99.90;;;;;;5123444;27;20112;-72
2022/09/13 04:07:00;;;;;;;13.70;9.98;;;14.00;99.90;;;;;;5133417;27;20047;-73
2022/09/13 04:09:25;;;;;;;15.15;10.77;;;14.00;99.90;;;;;;5117902;27;20015;-73
2022/09/13 04:11:51;;;;;;;12.38;10.20;;;14.00;99.90;;;;;;5128855;27;20031;-73
2022/09/13 04:14:16;;;;;;;13.13;10.13;;;14.00;99.90;;;;;;5125818;27;20019;-73
2022/09/13 04:16:42;;;;;;;14.43;10.90;;;14.00;99.90;;;;;;5126360;27;20235;-73
2022/09/13 04:19:07;;;;;;;11.00;9.50;;;14.00;99.90;;;;;;5124800;27;20031;-73
2022/09/13 04:21:33;;;;;;;14.52;10.15;;;14.00;99.90;;;;;;5139867;27;20042;-73
2022/09/13 04:23:58;;;;;;;14.10;11.02;;;14.00;99.90;;;;;;5130079;27;20079;-73
2022/09/13 04:26:24;;;;;;;14.38;10.88;;;14.10;99.90;;;;;;5129146;27;23610;-73
2022/09/13 04:28:52;;;;;;;16.17;11.05;;;14.10;99.90;;;;;;5134158;27;20023;-74
2022/09/13 04:31:17;;;;;;;15.50;11.50;;;14.10;99.90;;;;;;5138795;27;20315;-73
2022/09/13 04:33:43;;;;;;;14.02;11.65;;;14.00;99.90;;;;;;5127584;27;20137;-73
2022/09/13 04:36:09;;;;;;;16.80;11.60;;;14.00;99.90;;;;;;5135455;27;20039;-73
2022/09/13 04:38:36;;;;;;;18.13;11.93;;;14.00;99.90;;;;;;5116961;27;20080;-73
2022/09/13 04:41:02;;;;;;;14.10;11.43;;;14.00;99.90;;;;;;5113757;27;20393;-73
2022/09/13 04:43:27;;;;;;;16.85;12.98;;;14.00;99.90;;;;;;5128909;27;20550;-73
2022/09/13 04:45:53;;;;;;;12.63;11.25;;;14.00;99.90;;;;;;5131341;27;20031;-73
2022/09/13 04:48:19;;;;;;;16.15;13.25;;;13.90;99.90;;;;;;5131323;27;20449;-73
2022/09/13 04:50:44;;;;;;;24.80;13.55;;;13.90;99.90;;;;;;5126583;27;20626;-73
2022/09/13 04:53:10;;;;;;;18.33;12.82;;;13.90;99.90;;;;;;5134284;27;20030;-73
2022/09/13 04:55:36;;;;;;;17.60;13.85;;;13.90;99.90;;;;;;5121874;27;20030;-73
2022/09/13 04:58:03;;;;;;;16.20;12.90;;;13.90;99.90;;;;;;5130192;27;20083;-73
2022/09/13 05:00:30;;;;;;;16.27;13.15;;;13.90;99.90;;;;;;5130126;27;20023;-73
2022/09/13 05:02:56;;;;;;;18.67;13.68;;;13.90;99.90;;;;;;5112601;27;20113;-73
2022/09/13 05:05:24;;;;;;;16.30;12.98;;;13.90;99.90;;;;;;5131952;27;20109;-73
2022/09/13 05:07:50;;;;;;;15.85;12.98;;;13.90;99.90;;;;;;5119534;27;20092;-73
2022/09/13 05:10:16;;;;;;;17.52;13.68;;;13.90;99.90;;;;;;5127587;27;20020;-74
2022/09/13 05:12:42;;;;;;;17.27;13.07;;;13.90;99.90;;;;;;5113579;27;20019;-73
2022/09/13 05:15:09;;;;;;;16.92;13.27;;;13.90;99.90;;;;;;5130519;27;20359;-73
2022/09/13 05:17:35;;;;;;;15.48;13.00;;;13.90;99.90;;;;;;5117386;27;20035;-73
2022/09/13 05:20:00;;;;;;;18.65;13.18;;;14.00;99.90;;;;;;5123925;27;20077;-73
2022/09/13 05:22:26;;;;;;;17.08;12.52;;;14.00;99.90;;;;;;5121526;27;20455;-73
2022/09/13 05:24:52;;;;;;;16.15;12.60;;;14.00;99.90;;;;;;5120882;27;20039;-74
2022/09/13 05:27:17;;;;;;;16.65;13.13;;;14.00;99.90;;;;;;5120480;27;20035;-74
2022/09/13 05:29:43;;;;;;;16.60;13.43;;;14.10;99.90;;;;;;5136646;27;20031;-73
2022/09/13 05:32:08;;;;;;;17.80;14.00;;;14.10;99.90;;;;;;5113547;27;20114;-74
2022/09/13 05:34:34;;;;;;;15.77;12.50;;;14.10;99.90;;;;;;5126221;27;20031;-73
2022/09/13 05:36:59;;;;;;;17.50;12.98;;;14.10;99.90;;;;;;5119195;27;20027;-73
2022/09/13 05:39:25;;;;;;;19.73;12.93;;;14.10;99.90;;;;;;5110706;27;20028;-73
2022/09/13 05:41:51;;;;;;;15.70;12.10;;;14.10;99.90;;;;;;5120239;27;20023;-73
2022/09/13 05:44:16;;;;;;;16.23;12.85;;;14.10;99.90;;;;;;5121201;27;20118;-73
2022/09/13 05:46:45;;;;;;;15.40;11.95;;;14.10;99.90;;;;;;5109807;28;20035;-73
2022/09/13 05:49:12;;;;;;;15.70;11.50;;;14.10;99.90;;;;;;5126989;28;20087;-73
2022/09/13 05:51:38;;;;;;;14.02;11.05;;;14.10;99.90;;;;;;5116751;27;20024;-73
2022/09/13 05:54:03;;;;;;;13.95;11.35;;;14.10;99.90;;;;;;5105675;28;20045;-73
2022/09/13 05:56:30;;;;;;;15.75;11.20;;;14.10;99.90;;;;;;5113702;28;20544;-73
2022/09/13 05:58:57;;;;;;;13.38;11.48;;;14.20;99.90;;;;;;5117346;28;20115;-73
2022/09/13 06:01:26;;;;;;;14.70;12.07;;;14.20;99.90;;;;;;5122198;27;20039;-73
2022/09/13 06:03:54;;;;;;;16.88;12.40;;;14.20;99.90;;;;;;5115436;28;20030;-72
2022/09/13 06:06:20;;;;;;;14.48;11.77;;;14.20;99.90;;;;;;5122404;27;20052;-73
2022/09/13 06:08:47;;;;;;;15.30;11.02;;;14.30;99.90;;;;;;5119847;27;20024;-73
2022/09/13 06:11:13;;;;;;;14.02;11.15;;;14.30;99.90;;;;;;5116121;27;20023;-73
2022/09/13 06:13:41;;;;;;;14.05;10.82;;;14.30;99.90;;;;;;5131884;27;20031;-73
2022/09/13 06:16:09;;;;;;;19.08;12.23;;;14.30;99.90;;;;;;5126823;27;20042;-73
2022/09/13 06:18:35;;;;;;;16.40;12.27;;;14.40;99.90;;;;;;5123803;27;20029;-73
2022/09/13 06:21:05;;;;;;;14.40;11.48;;;14.40;99.90;;;;;;5123319;27;20031;-73
2022/09/13 06:23:31;;;;;;;16.25;12.60;;;14.50;99.90;;;;;;5134060;27;20034;-73
2022/09/13 06:26:02;;;;;;;14.82;11.93;;;14.50;99.90;;;;;;5121205;27;20050;-73
2022/09/13 06:28:28;;;;;;;14.35;12.07;;;14.50;99.90;;;;;;5121539;27;20023;-73
2022/09/13 06:31:12;;;;;;;15.30;11.43;;;14.50;99.90;;;;;;5129794;27;20396;-73
2022/09/13 06:33:40;;;;;;;13.60;11.27;;;14.50;99.90;;;;;;5130828;27;20026;-73
2022/09/13 06:36:12;;;;;;;15.88;11.60;;;14.50;99.90;;;;;;5128968;27;20023;-73
2022/09/13 06:38:38;;;;;;;14.73;11.30;;;14.50;99.90;;;;;;5131352;27;20445;-72
2022/09/13 06:41:07;;;;;;;16.13;11.82;;;14.50;99.90;;;;;;5104571;27;20089;-73
2022/09/13 06:43:33;;;;;;;16.55;13.05;;;14.50;99.90;;;;;;5097600;27;20042;-74
2022/09/13 06:46:00;;;;;;;27.13;17.40;;;14.60;99.90;;;;;;5121680;27;20075;-73
2022/09/13 06:48:29;;;;;;;29.60;20.25;;;14.60;99.90;;;;;;5106496;27;20039;-73
2022/09/13 06:50:57;;;;;;;21.77;16.38;;;14.60;99.90;;;;;;5090487;27;20127;-74
2022/09/13 06:53:23;;;;;;;18.50;15.88;;;14.60;99.90;;;;;;5118610;27;20506;-74
2022/09/13 06:55:48;;;;;;;20.00;14.57;;;14.60;99.90;;;;;;5110349;27;20064;-75
2022/09/13 06:58:14;;;;;;;17.98;14.18;;;14.60;99.90;;;;;;5125141;27;20628;-74
2022/09/13 07:00:39;;;;;;;25.90;15.10;;;14.70;99.90;;;;;;5095810;27;20027;-73
2022/09/13 07:03:05;;;;;;;21.10;15.40;;;14.70;99.90;;;;;;5112075;27;20059;-73
2022/09/13 07:05:31;;;;;;;23.38;15.35;;;14.80;99.90;;;;;;5117245;27;20035;-74
2022/09/13 07:07:56;;;;;;;20.50;16.58;;;14.90;99.90;;;;;;5092923;27;20127;-73
2022/09/13 07:10:22;;;;;;;23.45;15.07;;;14.90;99.90;;;;;;5088389;28;20209;-73
2022/09/13 07:12:47;;;;;;;17.20;13.90;;;15.00;99.90;;;;;;5099596;27;20554;-75
2022/09/13 07:15:13;;;;;;;19.23;14.45;;;15.00;99.90;;;;;;5126143;27;20023;-74
2022/09/13 07:17:38;;;;;;;21.63;14.63;;;15.00;99.90;;;;;;5095298;27;20054;-73
2022/09/13 07:20:06;;;;;;;17.75;14.05;;;15.10;99.90;;;;;;5101159;27;20683;-72
2022/09/13 07:22:31;;;;;;;18.05;14.68;;;15.10;99.90;;;;;;5110434;27;20061;-73
2022/09/13 07:24:57;;;;;;;22.33;14.75;;;15.10;99.90;;;;;;5108270;28;20035;-74
2022/09/13 07:27:22;;;;;;;18.23;14.48;;;15.10;99.90;;;;;;5094554;28;20372;-73
2022/09/13 07:29:48;;;;;;;18.67;14.85;;;15.10;99.90;;;;;;5092135;28;20028;-73
2022/09/13 07:32:13;;;;;;;18.80;14.45;;;15.20;99.90;;;;;;5100813;27;20026;-72
2022/09/13 07:34:39;;;;;;;17.92;14.82;;;15.20;99.90;;;;;;5097552;27;20028;-73
2022/09/13 07:37:04;;;;;;;16.95;14.15;;;15.20;99.90;;;;;;5100890;27;20027;-72
2022/09/13 07:39:30;;;;;;;19.35;14.63;;;15.20;99.90;;;;;;5091331;27;20245;-72
2022/09/13 07:41:56;;;;;;;17.15;13.95;;;15.20;99.90;;;;;;5117482;27;20023;-72
2022/09/13 07:44:21;;;;;;;18.33;14.63;;;15.30;99.90;;;;;;5130133;27;20122;-72
2022/09/13 07:46:47;;;;;;;17.40;14.35;;;15.30;99.90;;;;;;5122145;27;20058;-74
2022/09/13 07:49:16;;;;;;;20.40;14.77;;;15.30;99.90;;;;;;5146506;27;20030;-72
2022/09/13 07:51:42;;;;;;;17.40;14.55;;;15.40;99.90;;;;;;5112146;27;20027;-73
2022/09/13 07:54:16;;;;;;;21.13;15.20;;;15.40;99.90;;;;;;5145000;27;20064;-73
2022/09/13 07:56:42;;;;;;;17.90;14.02;;;15.40;99.90;;;;;;5133742;27;20476;-73
2022/09/13 07:59:13;;;;;;;20.00;15.52;;;15.40;99.90;;;;;;5124134;27;20032;-73
2022/09/13 08:01:41;;;;;;;18.73;15.60;;;15.50;99.90;;;;;;5133723;27;20034;-73
2022/09/13 08:04:16;;;;;;;24.08;16.02;;;15.60;99.90;;;;;;5113112;27;20035;-72
2022/09/13 08:06:42;;;;;;;18.10;14.45;;;15.60;99.90;;;;;;5129534;27;20050;-72
2022/09/13 08:09:09;;;;;;;21.17;14.68;;;15.70;99.90;;;;;;5129119;27;20113;-73
2022/09/13 08:11:37;;;;;;;18.90;15.50;;;15.80;99.90;;;;;;5119147;27;20583;-73
2022/09/13 08:14:05;;;;;;;19.30;13.77;;;15.80;99.90;;;;;;5116072;27;20378;-72
2022/09/13 08:16:30;;;;;;;19.50;13.90;;;15.90;99.90;;;;;;5130859;27;20105;-73
2022/09/13 08:18:58;;;;;;;16.58;13.75;;;16.10;99.90;;;;;;5136946;27;20144;-73
2022/09/13 08:21:25;;;;;;;16.38;13.00;;;16.20;99.90;;;;;;5129008;27;20027;-72
2022/09/13 08:23:59;;;;;;;15.65;12.88;;;16.30;99.90;;;;;;5120834;27;20039;-72
2022/09/13 08:26:28;;;;;;;16.88;12.75;;;16.50;99.90;;;;;;5120395;27;20030;-72
2022/09/13 08:28:56;;;;;;;15.55;12.80;;;16.60;99.90;;;;;;5125844;27;20034;-73
2022/09/13 08:31:22;;;;;;;15.10;12.30;;;16.70;99.90;;;;;;5117434;27;20114;-73
2022/09/13 08:33:48;;;;;;;13.77;12.25;;;16.70;99.90;;;;;;5147714;27;20148;-73
2022/09/13 08:36:14;;;;;;;16.02;12.32;;;16.70;99.90;;;;;;5106404;27;20088;-73
2022/09/13 08:38:48;;;;;;;18.60;13.75;;;16.70;99.90;;;;;;5106530;27;20027;-73
2022/09/13 08:41:22;;;;;;;17.75;13.82;;;16.70;99.90;;;;;;5105117;27;20048;-73
2022/09/13 08:43:49;;;;;;;15.93;13.40;;;16.60;99.90;;;;;;5110479;27;20120;-73
2022/09/13 08:46:23;;;;;;;20.10;14.32;;;16.60;99.90;;;;;;5106647;28;20075;-73
2022/09/13 08:48:52;;;;;;;15.40;13.77;;;16.60;99.90;;;;;;5108036;27;20304;-73
2022/09/13 08:51:28;;;;;;;14.43;12.50;;;16.60;99.90;;;;;;5139948;27;20268;-73
2022/09/13 08:53:55;;;;;;;15.55;13.10;;;16.70;99.90;;;;;;5134873;27;20026;-73
2022/09/13 08:56:55;;;;;;;16.35;12.70;;;16.70;99.90;;;;;;5133026;27;20394;-73
2022/09/13 08:59:27;;;;;;;14.35;12.23;;;16.80;99.90;;;;;;5115417;27;20157;-73
2022/09/13 09:02:28;;;;;;;19.57;13.30;;;16.80;99.90;;;;;;5131502;27;20234;-73
2022/09/13 09:05:03;;;;;;;14.82;13.23;;;16.90;99.90;;;;;;4362364;27;10001496;-72
2022/09/13 09:07:36;;;;;;;19.65;13.82;;;16.90;99.90;;;;;;5060264;28;20029;-73
2022/09/13 09:10:16;;;;;;;17.42;13.57;;;16.90;99.90;;;;;;5069489;28;20039;-73
2022/09/13 09:12:53;;;;;;;15.60;11.77;;;17.00;99.90;;;;;;5075966;28;20150;-73
2022/09/13 09:15:43;;;;;;;14.88;12.57;;;17.10;99.90;;;;;;5064697;28;20064;-73
2022/09/13 09:18:13;;;;;;;14.35;12.38;;;17.10;99.90;;;;;;5049608;28;20043;-74
2022/09/13 09:20:47;;;;;;;14.00;11.70;;;17.20;99.90;;;;;;5075791;28;20024;-73
2022/09/13 09:23:19;;;;;;;14.52;12.30;;;17.30;99.90;;;;;;5059804;28;20034;-73
2022/09/13 09:25:46;;;;;;;17.08;12.45;;;17.40;99.90;;;;;;5077710;28;20032;-73
2022/09/13 09:28:14;;;;;;;12.77;11.40;;;17.40;99.90;;;;;;5072245;28;20024;-74
2022/09/13 09:31:27;;;;;;;13.45;11.32;;;17.40;99.90;;;;;;5076439;28;20051;-73
2022/09/13 09:34:11;;;;;;;14.77;11.82;;;17.50;99.90;;;;;;5060245;28;20060;-73
2022/09/13 09:36:39;;;;;;;14.23;11.57;;;17.60;99.90;;;;;;5092977;28;20044;-72
2022/09/13 09:39:07;;;;;;;17.67;11.70;;;17.70;99.90;;;;;;5106022;27;20113;-71
2022/09/13 09:41:34;;;;;;;18.23;12.55;;;17.80;99.90;;;;;;5137807;27;20039;-71
2022/09/13 09:44:12;;;;;;;15.68;12.30;;;17.90;99.90;;;;;;5130819;27;20030;-73
2022/09/13 09:46:40;;;;;;;14.55;11.30;;;18.00;99.90;;;;;;5114062;27;20035;-72
2022/09/13 09:52:20;;;;;;;13.38;11.43;;;18.20;99.90;;;;;;5115754;27;20156;-73
2022/09/13 09:54:48;;;;;;;15.73;12.10;;;18.40;99.90;;;;;;5119649;27;20023;-74
2022/09/13 09:57:14;;;;;;;14.23;11.27;;;18.60;99.90;;;;;;5116679;28;20503;-74
2022/09/13 09:59:39;;;;;;;12.77;10.60;;;18.80;99.90;;;;;;5127783;27;20062;-72
2022/09/13 10:02:19;;;;;;;16.08;11.77;;;18.90;99.90;;;;;;5126352;27;20139;-74
2022/09/13 10:04:58;;;;;;;12.10;10.80;;;19.10;99.90;;;;;;5127039;27;20030;-73
2022/09/13 10:07:31;;;;;;;12.13;10.88;;;19.40;99.90;;;;;;5119008;27;20429;-74
2022/09/13 10:10:03;;;;;;;10.70;9.60;;;19.60;99.90;;;;;;5141429;27;20053;-74
2022/09/13 10:12:33;;;;;;;10.57;9.48;;;19.80;99.90;;;;;;5135454;27;20115;-74
2022/09/13 10:15:19;;;;;;;11.68;9.25;;;20.10;99.90;;;;;;5134599;27;20135;-74
2022/09/13 10:18:14;;;;;;;11.10;8.90;;;20.40;99.90;;;;;;5133814;27;20031;-74
2022/09/13 10:20:41;;;;;;;10.48;8.95;;;20.50;99.90;;;;;;5123747;27;20022;-74
2022/09/13 10:23:15;;;;;;;9.65;8.60;;;20.60;99.90;;;;;;5133286;27;20114;-72
2022/09/13 10:25:43;;;;;;;12.70;9.93;;;20.70;99.90;;;;;;5111060;27;20122;-71
2022/09/13 10:28:17;;;;;;;11.48;8.90;;;20.80;99.90;;;;;;5139921;27;20114;-73
2022/09/13 10:30:58;;;;;;;8.82;7.93;;;20.90;99.90;;;;;;5119751;27;20429;-73
2022/09/13 10:33:32;;;;;;;9.80;7.60;;;21.00;99.90;;;;;;5110551;27;20119;-73
2022/09/13 10:36:01;;;;;;;9.35;7.00;;;21.20;99.90;;;;;;5112407;27;20065;-73
2022/09/13 10:38:33;;;;;;;7.47;6.75;;;21.20;99.90;;;;;;5132359;27;20106;-72
2022/09/13 10:41:02;;;;;;;11.18;7.55;;;21.30;99.90;;;;;;5127836;27;20090;-73
2022/09/13 10:43:30;;;;;;;10.00;6.75;;;21.40;99.90;;;;;;5123716;27;20455;-73
2022/09/13 10:45:57;;;;;;;8.35;6.13;;;21.50;99.90;;;;;;5134436;27;20034;-73
2022/09/13 10:48:23;;;;;;;7.45;5.68;;;21.60;99.90;;;;;;5113939;27;20034;-74
2022/09/13 10:51:03;;;;;;;6.70;5.60;;;21.70;99.90;;;;;;5120079;27;20031;-73
2022/09/13 10:53:38;;;;;;;5.70;5.20;;;21.80;99.90;;;;;;5127532;27;20537;-73
2022/09/13 10:56:18;;;;;;;8.10;5.85;;;21.90;99.90;;;;;;5141325;27;20103;-73
2022/09/13 10:58:44;;;;;;;10.25;6.65;;;22.00;99.90;;;;;;5111757;27;20141;-73
2022/09/13 11:01:30;;;;;;;9.15;8.23;;;22.10;99.90;;;;;;5123241;27;20512;-74
2022/09/13 11:04:18;;;;;;;11.05;8.52;;;22.20;99.90;;;;;;5125471;27;20065;-74
2022/09/13 11:07:15;;;;;;;9.50;7.82;;;22.20;99.90;;;;;;5124395;27;20179;-73
2022/09/13 11:10:21;;;;;;;8.57;5.95;;;22.30;99.90;;;;;;5120404;27;20512;-73
2022/09/13 11:13:13;;;;;;;6.30;5.70;;;22.30;99.90;;;;;;5097852;27;20160;-74
2022/09/13 11:15:41;;;;;;;7.50;6.80;;;22.40;99.90;;;;;;5117347;27;20026;-74
2022/09/13 11:18:19;;;;;;;9.40;7.10;;;22.30;99.90;;;;;;5127423;27;20482;-74
2022/09/13 11:20:49;;;;;;;8.75;7.65;;;22.30;99.90;;;;;;5123271;27;20039;-74
2022/09/13 11:23:20;;;;;;;7.70;6.57;;;22.30;99.90;;;;;;5122429;27;20042;-74
2022/09/13 11:25:49;;;;;;;9.25;6.57;;;22.30;99.90;;;;;;5123274;27;20507;-75
2022/09/13 11:28:33;;;;;;;9.27;6.22;;;22.40;99.90;;;;;;5131399;27;20031;-74
2022/09/13 11:31:04;;;;;;;9.75;7.53;;;22.50;99.90;;;;;;5124099;27;20054;-73
2022/09/13 11:33:55;;;;;;;8.77;6.90;;;22.50;99.90;;;;;;5103800;27;20082;-72
2022/09/13 11:36:34;;;;;;;10.30;7.10;;;22.40;99.90;;;;;;5133238;27;20023;-74
2022/09/13 11:39:21;;;;;;;8.13;7.07;;;22.40;99.90;;;;;;5131450;27;20030;-74
2022/09/13 11:41:58;;;;;;;8.73;6.50;;;22.40;99.90;;;;;;5119702;27;20077;-75
2022/09/13 11:44:56;;;;;;;9.57;7.05;;;22.50;99.90;;;;;;5104117;27;20123;-74
2022/09/13 11:47:59;;;;;;;7.05;6.35;;;22.50;99.90;;;;;;5092909;27;20154;-74
2022/09/13 11:50:39;;;;;;;9.60;6.67;;;22.60;99.90;;;;;;5123078;27;20355;-73
2022/09/13 11:53:21;;;;;;;12.40;6.10;;;22.70;99.90;;;;;;5139248;27;20035;-73
2022/09/13 11:55:53;;;;;;;8.13;5.80;;;22.80;99.90;;;;;;5123353;27;20048;-73
2022/09/13 11:58:30;;;;;;;6.57;5.80;;;23.00;99.90;;;;;;5119578;27;20027;-74
2022/09/13 12:01:07;;;;;;;5.65;5.10;;;23.10;99.90;;;;;;5134223;27;20057;-73
2022/09/13 12:03:41;;;;;;;6.60;5.85;;;23.30;99.90;;;;;;5116750;27;20020;-75
2022/09/13 12:06:19;;;;;;;10.55;4.90;;;23.50;99.90;;;;;;5121007;27;20031;-74
2022/09/13 12:08:50;;;;;;;6.28;5.25;;;23.60;99.90;;;;;;5128837;27;20028;-73
2022/09/13 12:11:28;;;;;;;7.30;5.97;;;23.60;99.90;;;;;;5135665;27;20063;-74
2022/09/13 12:14:19;;;;;;;5.47;3.75;;;23.60;99.90;;;;;;5132399;27;20027;-74
2022/09/13 12:16:47;;;;;;;6.90;3.10;;;23.60;99.90;;;;;;5126181;27;20054;-74
2022/09/13 12:19:17;;;;;;;3.72;2.72;;;23.60;99.90;;;;;;5139140;27;20587;-74
2022/09/13 12:21:44;;;;;;;4.75;2.97;;;23.60;99.90;;;;;;5134917;27;20440;-74
2022/09/13 12:24:15;;;;;;;5.78;3.25;;;23.70;99.90;;;;;;5122445;27;20035;-74
2022/09/13 12:26:55;;;;;;;4.75;3.30;;;23.80;99.90;;;;;;5123913;27;20395;-74
2022/09/13 12:29:54;;;;;;;9.02;3.80;;;23.80;99.90;;;;;;5118777;27;20477;-74
2022/09/13 12:32:20;;;;;;;3.88;3.20;;;23.70;99.90;;;;;;5105516;27;20030;-74
2022/09/13 12:35:03;;;;;;;4.75;3.00;;;23.70;99.90;;;;;;5124835;27;20030;-74
2022/09/13 12:37:39;;;;;;;4.00;2.95;;;23.80;99.90;;;;;;5117101;27;20069;-73
2022/09/13 12:40:32;;;;;;;4.78;3.00;;;23.80;99.90;;;;;;5102656;27;20053;-73
2022/09/13 12:43:30;;;;;;;4.93;2.92;;;24.10;99.90;;;;;;5095985;27;20031;-73
2022/09/13 12:46:23;;;;;;;5.55;2.90;;;24.20;99.90;;;;;;5071413;28;20102;-74
2022/09/13 12:48:56;;;;;;;5.80;2.92;;;24.50;99.90;;;;;;5095162;27;20035;-74
2022/09/13 12:51:40;;;;;;;2.95;2.65;;;24.70;99.90;;;;;;5115707;27;20563;-73
2022/09/13 12:54:37;;;;;;;3.90;2.40;;;24.90;99.90;;;;;;5119771;27;20039;-75
2022/09/13 12:57:21;;;;;;;3.22;2.40;;;25.00;99.90;;;;;;5078088;27;20042;-74
2022/09/13 13:00:19;;;;;;;5.47;2.60;;;24.90;99.90;;;;;;5102879;27;20070;-75
2022/09/13 13:03:13;;;;;;;3.53;2.60;;;24.80;99.90;;;;;;5107071;27;20432;-74
2022/09/13 13:05:50;;;;;;;3.63;2.20;;;24.80;99.90;;;;;;5081099;28;20051;-74